Time;durP1;ratioP1;P1;durP2;ratioP2;P2;SDS_P1;SDS_P2;PMS_P1;PMS_P2;Temp;Humidity;BMP_temperature;BMP_pressure;BME280_temperature;BME280_humidity;BME280_pressure;Samples;Min_cycle;Max_cycle;Signal;HPM_P1;HPM_P2
2023/08/14 00:01:01;;;;;;;8.23;2.28;;;15.60;99.90;;;;;;5056971;28;20692;-58
2023/08/14 00:03:26;;;;;;;;;;;15.50;99.90;;;;;;5057288;28;20072;-59
2023/08/14 00:05:52;;;;;;;5.80;1.75;;;15.50;99.90;;;;;;5057286;28;20620;-59
2023/08/14 00:08:19;;;;;;;6.05;2.22;;;15.50;99.90;;;;;;5056905;28;20037;-58
2023/08/14 00:10:45;;;;;;;11.98;2.90;;;15.50;99.90;;;;;;5057086;28;20040;-58
2023/08/14 00:13:11;;;;;;;;;;;15.50;99.90;;;;;;5057844;28;20067;-58
2023/08/14 00:15:36;;;;;;;4.13;2.03;;;15.50;99.90;;;;;;5053463;28;19916;-59
2023/08/14 00:18:02;;;;;;;;;;;15.50;99.90;;;;;;5047645;28;20098;-59
2023/08/14 00:20:28;;;;;;;4.53;1.67;;;15.50;99.90;;;;;;5044768;28;19928;-58
2023/08/14 00:22:53;;;;;;;;;;;15.40;99.90;;;;;;5044630;28;20086;-59
2023/08/14 00:25:19;;;;;;;8.55;2.10;;;15.40;99.90;;;;;;5034382;28;20371;-57
2023/08/14 00:27:44;;;;;;;;;;;15.40;99.90;;;;;;5043551;28;20072;-57
2023/08/14 00:30:10;;;;;;;10.65;2.03;;;15.40;99.90;;;;;;5043670;28;19920;-58
2023/08/14 00:32:36;;;;;;;19.17;2.80;;;15.40;99.90;;;;;;5043483;28;20465;-56
2023/08/14 00:35:02;;;;;;;;;;;15.40;99.90;;;;;;5043062;28;20552;-52
2023/08/14 00:37:46;;;;;;;10.03;2.17;;;15.30;99.90;;;;;;5044065;28;20685;-53
2023/08/14 00:40:13;;;;;;;8.13;2.00;;;15.30;99.90;;;;;;5024257;28;20180;-58
2023/08/14 00:42:40;;;;;;;6.35;2.40;;;15.30;99.90;;;;;;5040359;28;20041;-58
2023/08/14 00:45:07;;;;;;;8.85;2.72;;;15.30;99.90;;;;;;5042062;28;20048;-58
2023/08/14 00:47:34;;;;;;;8.65;2.10;;;15.30;99.90;;;;;;5043977;28;20840;-59
2023/08/14 00:50:00;;;;;;;8.77;2.25;;;15.20;99.90;;;;;;5042386;28;20190;-58
2023/08/14 00:52:27;;;;;;;6.05;1.70;;;15.20;99.90;;;;;;5043659;28;20053;-59
2023/08/14 00:54:53;;;;;;;17.35;3.20;;;15.20;99.90;;;;;;5043134;28;20065;-59
2023/08/14 00:57:19;;;;;;;7.68;2.33;;;15.20;99.90;;;;;;5042430;28;20060;-58
2023/08/14 00:59:46;;;;;;;6.55;2.20;;;15.20;99.90;;;;;;5043397;28;20120;-59
2023/08/14 01:02:13;;;;;;;8.23;2.05;;;15.10;99.90;;;;;;5042408;28;20045;-59
2023/08/14 01:04:38;;;;;;;11.50;2.10;;;15.10;99.90;;;;;;5038223;28;20041;-58
2023/08/14 01:07:04;;;;;;;;;;;15.10;99.90;;;;;;5024762;28;20064;-56
2023/08/14 01:09:30;;;;;;;8.90;2.33;;;15.10;99.90;;;;;;5040935;28;19927;-57
2023/08/14 01:12:23;;;;;;;10.93;2.20;;;15.20;99.90;;;;;;5042986;28;20038;-56
2023/08/14 01:14:59;;;;;;;6.03;2.30;;;15.10;99.90;;;;;;5021151;28;20066;-57
2023/08/14 01:17:29;;;;;;;11.50;2.80;;;15.10;99.90;;;;;;5042779;28;20060;-57
2023/08/14 01:19:57;;;;;;;15.95;2.00;;;15.10;99.90;;;;;;5033216;28;20088;-61
2023/08/14 01:22:41;;;;;;;6.30;2.55;;;15.10;99.90;;;;;;5038049;28;20047;-61
2023/08/14 01:25:29;;;;;;;6.00;2.15;;;15.00;99.90;;;;;;5035634;28;20033;-61
2023/08/14 01:27:55;;;;;;;9.10;2.25;;;15.00;99.90;;;;;;5038256;28;20140;-61
2023/08/14 01:30:22;;;;;;;6.68;2.13;;;15.00;99.90;;;;;;5033239;28;20132;-60
2023/08/14 01:32:49;;;;;;;11.35;1.92;;;15.00;99.90;;;;;;5027877;28;20048;-61
2023/08/14 01:35:16;;;;;;;9.45;2.28;;;15.00;99.90;;;;;;5036538;28;20120;-61
2023/08/14 01:38:06;;;;;;;5.53;1.92;;;15.00;99.90;;;;;;5040422;28;20048;-61
2023/08/14 01:41:06;;;;;;;13.57;1.70;;;14.90;99.90;;;;;;5047332;28;20056;-61
2023/08/14 01:43:38;;;;;;;5.65;2.20;;;15.00;99.90;;;;;;5043890;28;20116;-61
2023/08/14 01:46:08;;;;;;;10.77;2.20;;;14.90;99.90;;;;;;5041525;28;20772;-61
2023/08/14 01:48:36;;;;;;;5.70;2.30;;;14.90;99.90;;;;;;5039511;28;20052;-61
2023/08/14 01:51:03;;;;;;;9.02;2.80;;;14.90;99.90;;;;;;5024815;28;20048;-61
2023/08/14 01:53:32;;;;;;;11.00;2.25;;;14.90;99.90;;;;;;5032046;28;20048;-61
2023/08/14 01:55:57;;;;;;;8.27;2.10;;;14.90;99.90;;;;;;5038472;28;20048;-61
2023/08/14 01:58:23;;;;;;;;;;;15.00;99.90;;;;;;5042556;28;20312;-61
2023/08/14 02:00:48;;;;;;;9.88;2.28;;;15.00;99.90;;;;;;5041602;28;19916;-60
2023/08/14 02:03:14;;;;;;;6.75;2.78;;;15.00;99.90;;;;;;5042736;28;20711;-61
2023/08/14 02:05:40;;;;;;;5.35;2.20;;;15.00;99.90;;;;;;5037795;28;20044;-58
2023/08/14 02:08:05;;;;;;;;;;;14.90;99.90;;;;;;5041330;28;20041;-61
2023/08/14 02:10:31;;;;;;;9.32;2.55;;;14.90;99.90;;;;;;5035367;28;19944;-60
2023/08/14 02:12:56;;;;;;;;;;;14.90;99.90;;;;;;5038539;28;20140;-61
2023/08/14 02:15:22;;;;;;;8.35;2.22;;;14.90;99.90;;;;;;5039072;28;19974;-60
2023/08/14 02:17:48;;;;;;;8.82;2.65;;;14.90;99.90;;;;;;5038997;28;20083;-61
2023/08/14 02:20:14;;;;;;;;;;;14.90;99.90;;;;;;5041575;28;20453;-61
2023/08/14 02:22:39;;;;;;;11.18;2.25;;;14.90;99.90;;;;;;5042214;28;20595;-60
2023/08/14 02:25:05;;;;;;;4.10;1.90;;;14.80;99.90;;;;;;5041304;28;20132;-58
2023/08/14 02:27:31;;;;;;;;;;;14.80;99.90;;;;;;5041365;28;20120;-61
2023/08/14 02:29:57;;;;;;;9.27;2.50;;;14.80;99.90;;;;;;5042096;28;19927;-60
2023/08/14 02:32:23;;;;;;;8.57;2.35;;;14.80;99.90;;;;;;5021506;28;20699;-60
2023/08/14 02:34:49;;;;;;;;;;;14.80;99.90;;;;;;5036706;28;20045;-62
2023/08/14 02:37:17;;;;;;;6.65;1.83;;;14.70;99.90;;;;;;5042323;28;19927;-61
2023/08/14 02:39:43;;;;;;;16.50;2.45;;;14.70;99.90;;;;;;5040721;28;20180;-61
2023/08/14 02:42:09;;;;;;;9.25;2.20;;;14.70;99.90;;;;;;5040469;28;20048;-59
2023/08/14 02:44:35;;;;;;;3.28;1.95;;;14.70;99.90;;;;;;5042731;28;20489;-61
2023/08/14 02:47:01;;;;;;;6.25;2.63;;;14.70;99.90;;;;;;5023532;28;20053;-61
2023/08/14 02:49:27;;;;;;;;;;;14.70;99.90;;;;;;5024496;28;20413;-61
2023/08/14 02:51:53;;;;;;;6.22;2.10;;;14.60;99.90;;;;;;5034224;28;19927;-61
2023/08/14 02:54:19;;;;;;;9.63;2.20;;;14.60;99.90;;;;;;5041452;28;20785;-62
2023/08/14 02:56:46;;;;;;;9.90;2.00;;;14.60;99.90;;;;;;5038247;28;20037;-61
2023/08/14 02:59:11;;;;;;;10.70;2.10;;;14.70;99.90;;;;;;5028548;28;20066;-60
2023/08/14 03:01:37;;;;;;;;;;;14.70;99.90;;;;;;5040110;28;20041;-61
2023/08/14 03:04:03;;;;;;;16.88;3.42;;;14.60;99.90;;;;;;5041235;28;19920;-61
2023/08/14 03:06:31;;;;;;;;;;;14.60;99.90;;;;;;5035901;28;20129;-61
2023/08/14 03:09:00;;;;;;;5.18;2.10;;;14.60;99.90;;;;;;5038140;28;19970;-60
2023/08/14 03:11:25;;;;;;;9.32;2.10;;;14.50;99.90;;;;;;5041010;28;20041;-60
2023/08/14 03:13:51;;;;;;;;;;;14.50;99.90;;;;;;5035641;28;20029;-58
2023/08/14 03:16:17;;;;;;;7.63;2.28;;;14.50;99.90;;;;;;5041577;28;20441;-60
2023/08/14 03:18:46;;;;;;;;;;;14.50;99.90;;;;;;5040866;28;20456;-60
2023/08/14 03:21:12;;;;;;;4.85;1.80;;;14.50;99.90;;;;;;5040227;28;20008;-59
2023/08/14 03:23:37;;;;;;;12.73;2.88;;;14.50;99.90;;;;;;5000169;28;20076;-61
2023/08/14 03:26:04;;;;;;;;;;;14.50;99.90;;;;;;5020408;28;20069;-60
2023/08/14 03:28:30;;;;;;;8.57;2.65;;;14.40;99.90;;;;;;5025778;28;19920;-60
2023/08/14 03:30:55;;;;;;;7.32;2.25;;;14.40;99.90;;;;;;5024279;28;20048;-61
2023/08/14 03:33:21;;;;;;;;;;;14.40;99.90;;;;;;5033589;28;20049;-59
2023/08/14 03:35:47;;;;;;;6.18;2.17;;;14.40;99.90;;;;;;5029325;28;20040;-60
2023/08/14 03:38:12;;;;;;;;;;;14.40;99.90;;;;;;5030172;28;20040;-61
2023/08/14 03:40:38;;;;;;;7.80;2.38;;;14.40;99.90;;;;;;5023768;28;19921;-56
2023/08/14 03:43:03;;;;;;;7.43;2.25;;;14.40;99.90;;;;;;5032813;28;20186;-60
2023/08/14 03:45:29;;;;;;;;;;;14.40;99.90;;;;;;5029499;28;20629;-61
2023/08/14 03:47:55;;;;;;;8.55;2.08;;;14.40;99.90;;;;;;5033824;28;19927;-60
2023/08/14 03:50:20;;;;;;;;;;;14.40;99.90;;;;;;5028706;28;20067;-60
2023/08/14 03:52:47;;;;;;;11.93;2.20;;;14.40;99.90;;;;;;5022142;28;20762;-61
2023/08/14 03:55:13;;;;;;;16.08;2.40;;;14.40;99.90;;;;;;5035011;28;20086;-60
2023/08/14 03:57:39;;;;;;;;;;;14.40;99.90;;;;;;5036129;28;20048;-59
2023/08/14 04:00:05;;;;;;;6.65;2.03;;;14.30;99.90;;;;;;5028306;28;19921;-61
2023/08/14 04:02:31;;;;;;;7.93;2.55;;;14.30;99.90;;;;;;5038771;28;20090;-59
2023/08/14 04:04:56;;;;;;;;;;;14.30;99.90;;;;;;5035774;28;20036;-60
2023/08/14 04:07:22;;;;;;;12.02;2.03;;;14.30;99.90;;;;;;5033565;28;19932;-60
2023/08/14 04:09:47;;;;;;;10.02;2.38;;;14.30;99.90;;;;;;5036646;28;20591;-60
2023/08/14 04:12:13;;;;;;;11.32;2.75;;;14.30;99.90;;;;;;5036900;28;20090;-58
2023/08/14 04:14:38;;;;;;;;;;;14.30;99.90;;;;;;5028305;28;20111;-59
2023/08/14 04:17:04;;;;;;;4.13;2.35;;;14.30;99.90;;;;;;5038395;28;20019;-60
2023/08/14 04:19:30;;;;;;;;;;;14.30;99.90;;;;;;5035593;28;20795;-60
2023/08/14 04:21:55;;;;;;;9.88;2.22;;;14.30;99.90;;;;;;5034140;28;19921;-60
2023/08/14 04:24:21;;;;;;;;;;;14.30;99.90;;;;;;5033049;28;20735;-60
2023/08/14 04:26:46;;;;;;;3.95;2.63;;;14.30;99.90;;;;;;5039032;28;19974;-59
2023/08/14 04:29:13;;;;;;;6.65;2.20;;;14.30;99.90;;;;;;5038508;28;20156;-56
2023/08/14 04:31:40;;;;;;;5.63;1.92;;;14.30;99.90;;;;;;5037328;28;20041;-58
2023/08/14 04:34:07;;;;;;;3.92;2.10;;;14.20;99.90;;;;;;5026582;28;20666;-60
2023/08/14 04:36:34;;;;;;;9.85;2.45;;;14.20;99.90;;;;;;5031970;28;20049;-60
2023/08/14 04:39:01;;;;;;;7.13;2.10;;;14.30;99.90;;;;;;5036287;28;20098;-60
2023/08/14 04:41:27;;;;;;;4.35;2.25;;;14.30;99.90;;;;;;5036509;28;20037;-59
2023/08/14 04:43:53;;;;;;;13.50;2.50;;;14.30;99.90;;;;;;5036307;28;20041;-61
2023/08/14 04:46:34;;;;;;;7.00;2.58;;;14.30;99.90;;;;;;5031531;28;20048;-59
2023/08/14 04:49:00;;;;;;;8.60;2.67;;;14.30;99.90;;;;;;5035916;28;20116;-60
2023/08/14 04:51:26;;;;;;;9.07;2.30;;;14.30;99.90;;;;;;5037671;28;20063;-60
2023/08/14 04:53:53;;;;;;;6.50;2.20;;;14.30;99.90;;;;;;5038472;28;20040;-61
2023/08/14 04:56:19;;;;;;;11.13;2.40;;;14.30;99.90;;;;;;5043461;28;20596;-60
2023/08/14 04:58:45;;;;;;;;;;;14.30;99.90;;;;;;5040718;28;20587;-60
2023/08/14 05:01:10;;;;;;;3.42;2.10;;;14.30;99.90;;;;;;5037974;28;19952;-59
2023/08/14 05:03:36;;;;;;;;;;;14.30;99.90;;;;;;5037822;28;20799;-59
2023/08/14 05:06:01;;;;;;;5.32;1.80;;;14.30;99.90;;;;;;5033289;28;20374;-61
2023/08/14 05:08:27;;;;;;;5.00;2.25;;;14.40;99.90;;;;;;5038934;28;20049;-60
2023/08/14 05:10:54;;;;;;;6.65;2.30;;;14.40;99.90;;;;;;5035734;28;20124;-59
2023/08/14 05:13:20;;;;;;;10.50;3.28;;;14.50;99.90;;;;;;5034187;28;20067;-61
2023/08/14 05:15:46;;;;;;;;;;;14.50;99.90;;;;;;5041362;28;20052;-60
2023/08/14 05:18:12;;;;;;;7.35;2.10;;;14.60;99.90;;;;;;5029306;28;19927;-60
2023/08/14 05:20:38;;;;;;;;;;;14.60;99.90;;;;;;5043054;28;20127;-61
2023/08/14 05:23:04;;;;;;;12.00;2.47;;;14.70;99.90;;;;;;5039446;28;19959;-60
2023/08/14 05:25:30;;;;;;;5.30;2.20;;;14.70;99.90;;;;;;5036262;28;20036;-60
2023/08/14 05:27:56;;;;;;;7.80;2.75;;;14.80;99.90;;;;;;5027223;28;20512;-59
2023/08/14 05:30:21;;;;;;;;;;;15.00;99.90;;;;;;5034518;28;20115;-59
2023/08/14 05:32:47;;;;;;;5.57;1.90;;;15.30;99.90;;;;;;5034708;28;19917;-61
2023/08/14 05:35:13;;;;;;;9.85;2.33;;;15.60;99.90;;;;;;5039662;28;20695;-60
2023/08/14 05:37:42;;;;;;;7.20;2.47;;;15.70;99.90;;;;;;5033691;28;20209;-60
2023/08/14 05:40:10;;;;;;;6.85;2.50;;;15.80;99.90;;;;;;5032993;28;20428;-64
2023/08/14 05:42:36;;;;;;;7.78;2.28;;;16.00;99.90;;;;;;5032715;28;20620;-60
2023/08/14 05:45:02;;;;;;;5.47;2.63;;;16.00;99.90;;;;;;5036194;28;20131;-62
2023/08/14 05:47:28;;;;;;;;;;;16.10;99.90;;;;;;5032015;28;20122;-62
2023/08/14 05:49:53;;;;;;;5.18;2.30;;;16.10;99.90;;;;;;5034603;28;19924;-63
2023/08/14 05:52:19;;;;;;;11.65;2.88;;;16.00;99.90;;;;;;5038975;28;20762;-62
2023/08/14 05:54:45;;;;;;;8.02;2.55;;;16.10;99.90;;;;;;5036568;28;20044;-61
2023/08/14 05:57:10;;;;;;;;;;;16.30;99.90;;;;;;5038667;28;20040;-63
2023/08/14 05:59:36;;;;;;;8.43;2.65;;;16.30;99.90;;;;;;5039151;28;19920;-62
2023/08/14 06:02:01;;;;;;;8.93;2.33;;;16.30;99.90;;;;;;5037566;28;20041;-61
2023/08/14 06:04:27;;;;;;;;;;;16.30;99.90;;;;;;5038270;28;20033;-61
2023/08/14 06:06:53;;;;;;;5.95;2.58;;;16.20;99.90;;;;;;5038750;28;19966;-62
2023/08/14 06:09:19;;;;;;;;;;;16.30;99.90;;;;;;5036290;28;20069;-61
2023/08/14 06:11:45;;;;;;;6.25;2.55;;;16.40;99.90;;;;;;5031894;28;19927;-61
2023/08/14 06:14:11;;;;;;;4.55;2.20;;;16.50;99.90;;;;;;5040318;28;20044;-61
2023/08/14 06:16:37;;;;;;;10.13;3.03;;;16.60;99.90;;;;;;5041246;28;20091;-61
2023/08/14 06:19:02;;;;;;;;;;;16.80;99.90;;;;;;5038780;28;20123;-60
2023/08/14 06:21:28;;;;;;;6.38;2.45;;;16.90;99.90;;;;;;5034176;28;20015;-60
2023/08/14 06:23:53;;;;;;;;;;;17.00;99.90;;;;;;5039224;28;20033;-59
2023/08/14 06:26:19;;;;;;;8.18;2.83;;;17.40;99.90;;;;;;5043015;28;20393;-59
2023/08/14 06:28:45;;;;;;;6.55;1.98;;;17.60;99.90;;;;;;5034984;28;20041;-60
2023/08/14 06:31:10;;;;;;;11.32;2.53;;;17.80;99.90;;;;;;5040115;28;20063;-60
2023/08/14 06:33:36;;;;;;;5.45;2.13;;;18.00;99.90;;;;;;5041688;28;20295;-60
2023/08/14 06:36:02;;;;;;;5.05;2.17;;;18.10;99.90;;;;;;5041418;28;20052;-60
2023/08/14 06:38:27;;;;;;;;;;;18.00;99.90;;;;;;5029106;28;20103;-59
2023/08/14 06:40:53;;;;;;;12.45;1.98;;;17.90;99.90;;;;;;5028922;28;19921;-60
2023/08/14 06:43:20;;;;;;;8.73;2.83;;;17.90;99.90;;;;;;5040713;28;20037;-60
2023/08/14 06:45:46;;;;;;;10.10;2.42;;;17.90;99.90;;;;;;5032850;28;20449;-60
2023/08/14 06:48:12;;;;;;;5.65;1.90;;;18.00;99.90;;;;;;5022262;28;20521;-60
2023/08/14 06:50:38;;;;;;;8.40;2.58;;;18.00;99.90;;;;;;5036365;28;20033;-60
2023/08/14 06:53:03;;;;;;;;;;;17.90;99.90;;;;;;5041376;28;20060;-59
2023/08/14 06:55:29;;;;;;;9.35;2.20;;;17.90;99.90;;;;;;5038978;28;20587;-60
2023/08/14 06:57:54;;;;;;;8.32;1.98;;;17.90;99.90;;;;;;5035202;28;20037;-60
2023/08/14 07:00:20;;;;;;;;;;;17.90;99.90;;;;;;5042776;28;20101;-61
2023/08/14 07:02:47;;;;;;;13.25;2.35;;;17.80;99.90;;;;;;5042579;28;19963;-60
2023/08/14 07:05:13;;;;;;;8.40;1.80;;;17.90;99.90;;;;;;5038127;28;20559;-60
2023/08/14 07:07:38;;;;;;;;;;;17.90;99.90;;;;;;5037076;28;20044;-59
2023/08/14 07:10:04;;;;;;;6.47;2.33;;;17.90;99.90;;;;;;5035682;28;19921;-60
2023/08/14 07:12:30;;;;;;;6.30;2.30;;;17.90;99.90;;;;;;5042049;28;20049;-60
2023/08/14 07:14:55;;;;;;;;;;;17.90;99.90;;;;;;5038862;28;20044;-61
2023/08/14 07:17:21;;;;;;;7.22;2.10;;;17.90;99.90;;;;;;5038658;28;19928;-62
2023/08/14 07:19:47;;;;;;;8.52;1.98;;;18.00;99.90;;;;;;5038127;28;20068;-62
2023/08/14 07:22:12;;;;;;;;;;;18.00;99.90;;;;;;5025595;28;20073;-61
2023/08/14 07:24:38;;;;;;;5.13;2.88;;;18.10;99.90;;;;;;5040365;28;19920;-63
2023/08/14 07:27:04;;;;;;;7.70;2.15;;;18.10;99.90;;;;;;5032067;28;20119;-62
2023/08/14 07:29:29;;;;;;;;;;;18.10;99.90;;;;;;5039202;28;20564;-62
2023/08/14 07:31:55;;;;;;;7.68;3.35;;;18.20;99.90;;;;;;5038881;28;19921;-62
2023/08/14 07:34:21;;;;;;;11.40;2.65;;;18.20;99.90;;;;;;5042646;28;20056;-61
2023/08/14 07:36:46;;;;;;;;;;;18.30;99.90;;;;;;5028843;28;20037;-62
2023/08/14 07:39:12;;;;;;;13.00;2.50;;;18.40;99.90;;;;;;5042606;28;20007;-62
2023/08/14 07:41:37;;;;;;;6.25;2.28;;;18.50;99.90;;;;;;5044221;28;20409;-61
2023/08/14 07:44:04;;;;;;;7.60;2.35;;;18.60;99.90;;;;;;5033265;28;20035;-62
2023/08/14 07:46:29;;;;;;;7.63;2.13;;;18.80;99.90;;;;;;5028654;28;20139;-62
2023/08/14 07:48:55;;;;;;;;;;;18.90;99.90;;;;;;5034257;28;20115;-61
2023/08/14 07:51:20;;;;;;;8.20;2.28;;;19.00;99.90;;;;;;5044128;28;19920;-62
2023/08/14 07:53:46;;;;;;;7.40;2.33;;;19.10;99.90;;;;;;5044161;28;20501;-61
2023/08/14 07:56:11;;;;;;;7.70;1.98;;;19.20;99.90;;;;;;5042218;28;20995;-62
2023/08/14 07:58:39;;;;;;;8.50;2.78;;;19.40;99.90;;;;;;5040236;28;20043;-62
2023/08/14 08:01:05;;;;;;;9.63;1.98;;;19.70;99.90;;;;;;5043063;28;20110;-63
2023/08/14 08:03:30;;;;;;;12.73;1.98;;;20.10;99.90;;;;;;5043038;28;20599;-62
2023/08/14 08:05:56;;;;;;;6.30;2.30;;;20.80;99.90;;;;;;5043822;28;20041;-60
2023/08/14 08:08:22;;;;;;;10.63;3.03;;;21.30;99.90;;;;;;5028307;28;20057;-59
2023/08/14 08:10:47;;;;;;;6.70;3.20;;;21.50;99.90;;;;;;5040970;28;20704;-61
2023/08/14 08:13:13;;;;;;;5.68;2.67;;;21.70;99.90;;;;;;5040594;28;20033;-61
2023/08/14 08:15:38;;;;;;;7.13;2.47;;;21.90;99.90;;;;;;5041632;28;20087;-61
2023/08/14 08:18:04;;;;;;;5.22;2.05;;;21.70;99.90;;;;;;5032426;28;20053;-58
2023/08/14 08:20:30;;;;;;;7.28;2.20;;;21.40;99.90;;;;;;5033195;28;20049;-61
2023/08/14 08:22:56;;;;;;;7.65;2.53;;;21.40;99.90;;;;;;5034504;28;20056;-61
2023/08/14 08:25:21;;;;;;;9.60;2.47;;;22.00;99.90;;;;;;5044515;28;20041;-61
2023/08/14 08:27:47;;;;;;;5.45;1.88;;;22.00;99.90;;;;;;5036707;28;20037;-61
2023/08/14 08:30:13;;;;;;;8.98;2.45;;;22.10;99.90;;;;;;5024231;28;20041;-60
2023/08/14 08:32:39;;;;;;;6.40;2.13;;;22.40;99.90;;;;;;5039606;28;20036;-61
2023/08/14 08:35:04;;;;;;;6.47;2.03;;;23.30;99.90;;;;;;5042100;28;20102;-60
2023/08/14 08:37:30;;;;;;;6.53;2.08;;;23.80;99.90;;;;;;5043343;28;20047;-62
2023/08/14 08:39:55;;;;;;;6.80;2.45;;;24.00;99.90;;;;;;5040217;28;20694;-61
2023/08/14 08:42:22;;;;;;;6.78;2.45;;;23.40;99.90;;;;;;5043830;28;20049;-61
2023/08/14 08:44:50;;;;;;;5.97;2.03;;;23.00;99.90;;;;;;5008526;28;20033;-61
2023/08/14 08:47:21;;;;;;;6.65;2.35;;;22.60;99.90;;;;;;5042194;28;20079;-61
2023/08/14 08:49:47;;;;;;;7.53;2.35;;;22.40;99.90;;;;;;5032010;28;20068;-61
2023/08/14 08:52:14;;;;;;;6.88;2.47;;;22.30;99.90;;;;;;5034515;28;20429;-61
2023/08/14 08:54:40;;;;;;;5.47;2.83;;;22.20;99.90;;;;;;5037269;28;20688;-62
2023/08/14 08:57:06;;;;;;;9.55;1.90;;;22.00;99.90;;;;;;5043536;28;20055;-60
2023/08/14 08:59:33;;;;;;;6.03;2.28;;;21.80;99.90;;;;;;5042667;28;20592;-60
2023/08/14 09:01:58;;;;;;;4.78;2.13;;;21.80;99.90;;;;;;5041898;28;20040;-62
2023/08/14 09:04:24;;;;;;;8.82;2.42;;;21.70;99.90;;;;;;5039891;28;20044;-62
2023/08/14 09:06:50;;;;;;;8.93;2.10;;;21.70;99.90;;;;;;5037965;28;20041;-61
2023/08/14 09:09:16;;;;;;;12.88;2.40;;;21.70;99.90;;;;;;5037267;28;20068;-62
2023/08/14 09:11:42;;;;;;;8.20;2.28;;;21.70;99.90;;;;;;5044543;28;20041;-62
2023/08/14 09:14:08;;;;;;;4.90;2.03;;;21.70;99.90;;;;;;5038626;28;20087;-61
2023/08/14 09:16:34;;;;;;;4.53;2.10;;;21.70;99.90;;;;;;5034818;28;20049;-62
2023/08/14 09:19:00;;;;;;;8.50;2.40;;;21.70;99.90;;;;;;5032988;28;20036;-61
2023/08/14 09:21:28;;;;;;;9.15;2.83;;;21.70;99.90;;;;;;5043890;28;20052;-62
2023/08/14 09:23:54;;;;;;;6.90;2.28;;;21.80;99.90;;;;;;5041277;28;20033;-61
2023/08/14 09:26:20;;;;;;;4.75;1.95;;;21.80;99.90;;;;;;5037757;28;20401;-62
2023/08/14 09:28:47;;;;;;;5.95;2.15;;;21.90;99.90;;;;;;5028235;28;20049;-61
2023/08/14 09:31:13;;;;;;;6.65;2.17;;;22.10;99.90;;;;;;5029928;28;20559;-66
2023/08/14 09:33:44;;;;;;;5.53;2.20;;;22.30;99.90;;;;;;5038713;28;20060;-61
2023/08/14 09:36:11;;;;;;;7.15;2.22;;;22.50;99.90;;;;;;5042794;28;20558;-61
2023/08/14 09:38:37;;;;;;;4.50;2.33;;;22.80;99.90;;;;;;5036209;28;20152;-61
2023/08/14 09:41:03;;;;;;;7.60;2.33;;;22.90;99.90;;;;;;5039207;28;20029;-62
2023/08/14 09:43:30;;;;;;;6.95;2.88;;;23.00;99.90;;;;;;5030606;28;20493;-61
2023/08/14 09:45:58;;;;;;;6.85;2.08;;;23.10;99.90;;;;;;5036383;28;20041;-60
2023/08/14 09:48:39;;;;;;;6.72;2.05;;;23.10;99.90;;;;;;5040683;28;20040;-61
2023/08/14 09:51:08;;;;;;;7.35;2.53;;;22.90;99.90;;;;;;5041263;28;20029;-59
2023/08/14 09:53:49;;;;;;;10.63;2.25;;;23.10;99.90;;;;;;5025555;28;20117;-61
2023/08/14 09:56:18;;;;;;;8.63;2.53;;;23.20;99.90;;;;;;5041021;28;20064;-61
2023/08/14 09:58:44;;;;;;;8.48;2.78;;;23.20;99.90;;;;;;5036195;28;20047;-62
2023/08/14 10:01:12;;;;;;;6.20;2.42;;;23.10;99.90;;;;;;5041658;28;20036;-61
2023/08/14 10:03:39;;;;;;;5.57;2.10;;;23.00;99.90;;;;;;5030987;28;20064;-61
2023/08/14 10:06:06;;;;;;;7.53;2.50;;;22.90;99.90;;;;;;5040245;28;20048;-61
2023/08/14 10:08:37;;;;;;;7.25;2.53;;;22.90;99.90;;;;;;5033560;28;20037;-61
2023/08/14 10:11:03;;;;;;;6.85;2.90;;;23.00;99.90;;;;;;5041953;28;20072;-59
2023/08/14 10:13:32;;;;;;;7.60;2.53;;;23.00;99.90;;;;;;5039050;28;20144;-60
2023/08/14 10:16:01;;;;;;;8.20;2.42;;;23.00;99.90;;;;;;5031365;28;20049;-60
2023/08/14 10:18:29;;;;;;;7.63;3.13;;;22.90;99.90;;;;;;5031715;28;20408;-60
2023/08/14 10:20:58;;;;;;;5.22;2.20;;;22.90;99.90;;;;;;5029141;28;20065;-61
2023/08/14 10:23:25;;;;;;;5.10;2.38;;;23.00;99.90;;;;;;5033903;28;20048;-60
2023/08/14 10:25:51;;;;;;;8.63;3.03;;;23.20;99.90;;;;;;5039671;28;20049;-60
2023/08/14 10:28:20;;;;;;;8.77;2.97;;;23.40;99.90;;;;;;5042377;28;20045;-59
2023/08/14 10:30:46;;;;;;;7.15;2.45;;;23.50;99.90;;;;;;5037821;28;20049;-61
2023/08/14 10:33:13;;;;;;;5.55;2.67;;;23.80;99.90;;;;;;5039018;28;20040;-61
2023/08/14 10:35:54;;;;;;;9.13;3.10;;;23.90;99.90;;;;;;5036744;28;20040;-61
2023/08/14 10:38:20;;;;;;;5.93;2.85;;;23.80;99.90;;;;;;5028782;28;20743;-61
2023/08/14 10:41:07;;;;;;;6.72;2.33;;;23.90;99.90;;;;;;5042118;28;20041;-61
2023/08/14 10:43:32;;;;;;;8.43;2.78;;;24.00;99.90;;;;;;5040522;28;20037;-60
2023/08/14 10:45:58;;;;;;;7.07;2.72;;;24.00;99.90;;;;;;5040262;28;20420;-60
2023/08/14 10:48:24;;;;;;;5.85;2.83;;;24.10;99.90;;;;;;5035118;28;20090;-58
2023/08/14 10:51:00;;;;;;;6.55;2.50;;;24.00;99.90;;;;;;5041316;28;20124;-60
2023/08/14 10:53:25;;;;;;;4.60;2.45;;;24.10;99.90;;;;;;5042448;28;20064;-61
2023/08/14 10:55:52;;;;;;;6.07;2.30;;;24.20;99.90;;;;;;5030307;28;20056;-59
2023/08/14 10:58:35;;;;;;;7.88;2.42;;;24.10;99.90;;;;;;5035269;28;20148;-61
2023/08/14 11:01:03;;;;;;;9.25;3.00;;;24.10;99.90;;;;;;5034630;28;20033;-61
2023/08/14 11:03:31;;;;;;;8.70;2.90;;;24.10;99.90;;;;;;5036122;28;20098;-61
2023/08/14 11:05:57;;;;;;;3.63;1.85;;;24.10;99.90;;;;;;5038719;28;20057;-62
2023/08/14 11:08:23;;;;;;;5.70;2.22;;;24.20;99.90;;;;;;5036906;28;20095;-62
2023/08/14 11:10:50;;;;;;;4.47;2.10;;;24.30;99.90;;;;;;5036263;28;20572;-62
2023/08/14 11:13:16;;;;;;;4.55;2.65;;;24.40;99.90;;;;;;5032132;28;20035;-62
2023/08/14 11:15:42;;;;;;;6.40;2.40;;;24.50;99.90;;;;;;5019520;28;20044;-62
2023/08/14 11:18:09;;;;;;;9.75;2.58;;;24.60;99.90;;;;;;5023027;28;20038;-62
2023/08/14 11:20:37;;;;;;;5.88;2.30;;;24.70;99.90;;;;;;5032996;28;20084;-62
2023/08/14 11:23:03;;;;;;;6.03;2.35;;;24.60;99.90;;;;;;5042445;28;20431;-61
2023/08/14 11:25:30;;;;;;;7.20;2.15;;;24.50;99.90;;;;;;5036386;28;20753;-61
2023/08/14 11:27:56;;;;;;;3.97;2.13;;;24.40;99.90;;;;;;5028872;28;20041;-61
2023/08/14 11:30:24;;;;;;;6.63;3.90;;;24.30;99.90;;;;;;5031038;28;20693;-60
2023/08/14 11:32:50;;;;;;;7.20;2.90;;;24.20;99.90;;;;;;5036490;28;20819;-60
2023/08/14 11:35:17;;;;;;;9.82;2.40;;;24.10;99.90;;;;;;5037964;28;20037;-59
2023/08/14 11:37:44;;;;;;;7.97;2.70;;;24.10;99.90;;;;;;5038008;28;20044;-60
2023/08/14 11:40:12;;;;;;;4.93;2.08;;;24.10;99.90;;;;;;5038867;28;20041;-59
2023/08/14 11:42:39;;;;;;;5.05;2.20;;;24.00;99.90;;;;;;5037309;28;20059;-61
2023/08/14 11:45:06;;;;;;;8.75;2.70;;;23.90;99.90;;;;;;5031877;28;20106;-60
2023/08/14 11:47:40;;;;;;;4.25;2.67;;;23.90;99.90;;;;;;5035040;28;20580;-61
2023/08/14 11:50:08;;;;;;;8.40;2.22;;;23.90;99.90;;;;;;5033414;28;20159;-60
2023/08/14 11:52:35;;;;;;;4.35;2.17;;;23.70;99.90;;;;;;5033013;28;20048;-59
2023/08/14 11:55:02;;;;;;;3.55;2.30;;;23.70;99.90;;;;;;5040623;28;20522;-61
2023/08/14 11:57:30;;;;;;;7.30;2.78;;;23.70;99.90;;;;;;5028034;28;20045;-60
2023/08/14 11:59:57;;;;;;;6.45;2.60;;;23.70;99.90;;;;;;5034837;28;20048;-61
2023/08/14 12:02:28;;;;;;;5.75;2.08;;;24.00;99.90;;;;;;5041403;28;20133;-61
2023/08/14 12:05:00;;;;;;;4.32;2.50;;;24.00;99.90;;;;;;5040876;28;20524;-61
2023/08/14 12:07:26;;;;;;;8.05;2.50;;;24.00;99.90;;;;;;5040734;28;20055;-61
2023/08/14 12:09:56;;;;;;;6.75;2.30;;;23.90;99.90;;;;;;5040566;28;20076;-59
2023/08/14 12:12:22;;;;;;;8.55;3.05;;;23.80;99.90;;;;;;5030175;28;21481;-61
2023/08/14 12:14:49;;;;;;;7.63;2.88;;;23.70;99.90;;;;;;5038389;28;20044;-61
2023/08/14 12:17:18;;;;;;;5.22;2.85;;;23.60;99.90;;;;;;5033406;28;20042;-60
2023/08/14 12:19:54;;;;;;;8.40;2.58;;;23.50;99.90;;;;;;5039884;28;20041;-60
2023/08/14 12:22:26;;;;;;;8.85;2.95;;;23.40;99.90;;;;;;5035637;28;20033;-61
2023/08/14 12:24:53;;;;;;;7.60;2.72;;;23.30;99.90;;;;;;5036226;28;20045;-58
2023/08/14 12:27:23;;;;;;;7.97;2.78;;;23.30;99.90;;;;;;5032401;28;20045;-61
2023/08/14 12:29:49;;;;;;;8.98;2.83;;;23.20;99.90;;;;;;5035569;28;20040;-60
2023/08/14 12:32:15;;;;;;;16.67;3.13;;;22.90;99.90;;;;;;5031105;28;20033;-61
2023/08/14 12:34:41;;;;;;;9.20;3.00;;;22.80;99.90;;;;;;5036011;28;20040;-60
2023/08/14 12:37:10;;;;;;;7.03;2.80;;;22.60;99.90;;;;;;5040420;28;20041;-60
2023/08/14 12:39:36;;;;;;;10.15;3.25;;;22.50;99.90;;;;;;5042029;28;20044;-61
2023/08/14 12:42:02;;;;;;;8.68;3.03;;;22.40;99.90;;;;;;5028712;28;20520;-60
2023/08/14 12:44:28;;;;;;;14.68;3.70;;;22.30;99.90;;;;;;5040342;28;20043;-61
2023/08/14 12:46:54;;;;;;;9.52;3.13;;;22.20;99.90;;;;;;5044412;28;20583;-61
2023/08/14 12:49:24;;;;;;;21.15;3.83;;;22.20;99.90;;;;;;5043634;28;20865;-61
2023/08/14 12:51:53;;;;;;;13.68;3.80;;;22.20;99.90;;;;;;5044345;28;20047;-62
2023/08/14 12:54:19;;;;;;;5.60;3.28;;;22.20;99.90;;;;;;5043017;28;20041;-61
2023/08/14 12:56:46;;;;;;;15.85;4.18;;;22.20;99.90;;;;;;5042311;28;20047;-61